sensor_id;sensor_type;location;lat;lon;timestamp;temperature;humidity
69393;SHT31;56582;44.624;20.378;2023-02-01T00:00:00;3.16;84.04
69393;SHT31;56582;44.624;20.378;2023-02-01T00:02:26;3.18;83.95
69393;SHT31;56582;44.624;20.378;2023-02-01T00:04:51;3.18;83.43
69393;SHT31;56582;44.624;20.378;2023-02-01T00:07:16;3.19;83.81
69393;SHT31;56582;44.624;20.378;2023-02-01T00:09:42;3.19;83.70
69393;SHT31;56582;44.624;20.378;2023-02-01T00:12:07;3.11;83.53
69393;SHT31;56582;44.624;20.378;2023-02-01T00:14:33;3.16;83.27
69393;SHT31;56582;44.624;20.378;2023-02-01T00:17:04;3.18;83.05
69393;SHT31;56582;44.624;20.378;2023-02-01T00:19:31;3.11;83.18
69393;SHT31;56582;44.624;20.378;2023-02-01T00:21:56;3.22;83.02
69393;SHT31;56582;44.624;20.378;2023-02-01T00:24:22;3.25;83.10
69393;SHT31;56582;44.624;20.378;2023-02-01T00:26:47;3.16;82.75
69393;SHT31;56582;44.624;20.378;2023-02-01T00:29:18;3.09;83.17
69393;SHT31;56582;44.624;20.378;2023-02-01T00:31:45;3.07;83.20
69393;SHT31;56582;44.624;20.378;2023-02-01T00:34:13;3.08;83.37
69393;SHT31;56582;44.624;20.378;2023-02-01T00:36:39;3.14;83.64
69393;SHT31;56582;44.624;20.378;2023-02-01T00:39:05;3.22;83.03
69393;SHT31;56582;44.624;20.378;2023-02-01T00:41:30;3.12;83.08
69393;SHT31;56582;44.624;20.378;2023-02-01T00:43:56;3.18;83.02
69393;SHT31;56582;44.624;20.378;2023-02-01T00:46:21;3.25;82.79
69393;SHT31;56582;44.624;20.378;2023-02-01T00:48:47;3.28;82.24
69393;SHT31;56582;44.624;20.378;2023-02-01T00:51:19;3.18;82.36
69393;SHT31;56582;44.624;20.378;2023-02-01T00:53:44;3.22;82.39
69393;SHT31;56582;44.624;20.378;2023-02-01T00:56:10;3.19;81.97
69393;SHT31;56582;44.624;20.378;2023-02-01T00:58:36;3.31;81.31
69393;SHT31;56582;44.624;20.378;2023-02-01T01:01:07;3.19;81.82
69393;SHT31;56582;44.624;20.378;2023-02-01T01:03:35;3.22;81.41
69393;SHT31;56582;44.624;20.378;2023-02-01T01:06:14;3.25;81.16
69393;SHT31;56582;44.624;20.378;2023-02-01T01:08:40;3.19;81.54
69393;SHT31;56582;44.624;20.378;2023-02-01T01:11:10;3.14;81.93
69393;SHT31;56582;44.624;20.378;2023-02-01T01:13:36;3.09;82.59
69393;SHT31;56582;44.624;20.378;2023-02-01T01:16:04;3.08;83.07
69393;SHT31;56582;44.624;20.378;2023-02-01T01:18:31;3.05;82.83
69393;SHT31;56582;44.624;20.378;2023-02-01T01:20:57;3.01;83.20
69393;SHT31;56582;44.624;20.378;2023-02-01T01:23:22;3.02;82.55
69393;SHT31;56582;44.624;20.378;2023-02-01T01:25:48;2.95;82.03
69393;SHT31;56582;44.624;20.378;2023-02-01T01:28:13;3.02;82.88
69393;SHT31;56582;44.624;20.378;2023-02-01T01:30:39;3.04;83.05
69393;SHT31;56582;44.624;20.378;2023-02-01T01:33:04;3.07;83.33
69393;SHT31;56582;44.624;20.378;2023-02-01T01:35:31;3.18;82.72
69393;SHT31;56582;44.624;20.378;2023-02-01T01:37:58;3.07;81.90
69393;SHT31;56582;44.624;20.378;2023-02-01T01:40:23;3.18;81.65
69393;SHT31;56582;44.624;20.378;2023-02-01T01:42:49;3.29;81.74
69393;SHT31;56582;44.624;20.378;2023-02-01T01:47:51;3.21;81.21
69393;SHT31;56582;44.624;20.378;2023-02-01T01:50:21;3.35;81.01
69393;SHT31;56582;44.624;20.378;2023-02-01T01:52:51;3.36;80.62
69393;SHT31;56582;44.624;20.378;2023-02-01T01:55:18;3.36;82.70
69393;SHT31;56582;44.624;20.378;2023-02-01T01:57:50;3.26;81.40
69393;SHT31;56582;44.624;20.378;2023-02-01T02:00:18;3.15;81.75
69393;SHT31;56582;44.624;20.378;2023-02-01T02:02:47;3.15;81.57
69393;SHT31;56582;44.624;20.378;2023-02-01T02:05:13;3.09;81.91
69393;SHT31;56582;44.624;20.378;2023-02-01T02:07:42;3.07;82.35
69393;SHT31;56582;44.624;20.378;2023-02-01T02:10:10;3.02;82.70
69393;SHT31;56582;44.624;20.378;2023-02-01T02:12:41;2.94;83.33
69393;SHT31;56582;44.624;20.378;2023-02-01T02:15:09;2.94;82.52
69393;SHT31;56582;44.624;20.378;2023-02-01T02:18:01;3.08;82.32
69393;SHT31;56582;44.624;20.378;2023-02-01T02:41:54;2.74;81.97
69393;SHT31;56582;44.624;20.378;2023-02-01T02:47:56;2.77;80.92
69393;SHT31;56582;44.624;20.378;2023-02-01T02:53:17;2.76;81.06
69393;SHT31;56582;44.624;20.378;2023-02-01T02:56:04;2.77;81.08
69393;SHT31;56582;44.624;20.378;2023-02-01T02:58:50;2.90;80.03
69393;SHT31;56582;44.624;20.378;2023-02-01T03:01:34;2.88;80.57
69393;SHT31;56582;44.624;20.378;2023-02-01T03:04:18;2.83;80.85
69393;SHT31;56582;44.624;20.378;2023-02-01T03:06:44;2.65;81.04
69393;SHT31;56582;44.624;20.378;2023-02-01T03:09:18;2.68;80.80
69393;SHT31;56582;44.624;20.378;2023-02-01T03:11:45;2.90;80.02
69393;SHT31;56582;44.624;20.378;2023-02-01T03:14:34;3.01;78.95
69393;SHT31;56582;44.624;20.378;2023-02-01T03:17:14;3.23;79.95
69393;SHT31;56582;44.624;20.378;2023-02-01T03:19:43;3.21;81.00
69393;SHT31;56582;44.624;20.378;2023-02-01T03:22:15;3.04;81.22
69393;SHT31;56582;44.624;20.378;2023-02-01T03:24:49;3.01;80.76
69393;SHT31;56582;44.624;20.378;2023-02-01T03:30:17;3.14;80.01
69393;SHT31;56582;44.624;20.378;2023-02-01T03:32:47;3.05;79.95
69393;SHT31;56582;44.624;20.378;2023-02-01T03:35:50;2.88;80.54
69393;SHT31;56582;44.624;20.378;2023-02-01T03:38:28;2.84;80.55
69393;SHT31;56582;44.624;20.378;2023-02-01T03:43:27;3.22;81.34
69393;SHT31;56582;44.624;20.378;2023-02-01T03:45:59;3.14;80.35
69393;SHT31;56582;44.624;20.378;2023-02-01T03:48:27;2.95;80.73
69393;SHT31;56582;44.624;20.378;2023-02-01T03:50:57;2.71;80.92
69393;SHT31;56582;44.624;20.378;2023-02-01T03:53:25;2.63;81.07
69393;SHT31;56582;44.624;20.378;2023-02-01T03:55:52;2.56;81.68
69393;SHT31;56582;44.624;20.378;2023-02-01T03:58:22;2.60;82.30
69393;SHT31;56582;44.624;20.378;2023-02-01T04:00:59;2.64;82.25
69393;SHT31;56582;44.624;20.378;2023-02-01T04:03:26;2.71;82.02
69393;SHT31;56582;44.624;20.378;2023-02-01T04:05:52;2.94;81.05
69393;SHT31;56582;44.624;20.378;2023-02-01T04:08:20;2.68;81.48
69393;SHT31;56582;44.624;20.378;2023-02-01T04:10:47;2.70;81.64
69393;SHT31;56582;44.624;20.378;2023-02-01T04:13:13;2.83;81.15
69393;SHT31;56582;44.624;20.378;2023-02-01T04:15:38;2.74;81.65
69393;SHT31;56582;44.624;20.378;2023-02-01T04:18:04;2.67;81.72
69393;SHT31;56582;44.624;20.378;2023-02-01T04:20:30;2.57;81.55
69393;SHT31;56582;44.624;20.378;2023-02-01T04:22:55;2.57;81.24
69393;SHT31;56582;44.624;20.378;2023-02-01T04:25:21;2.52;81.23
69393;SHT31;56582;44.624;20.378;2023-02-01T04:27:46;2.54;81.18
69393;SHT31;56582;44.624;20.378;2023-02-01T04:30:12;2.74;81.21
69393;SHT31;56582;44.624;20.378;2023-02-01T04:32:38;2.84;81.41
69393;SHT31;56582;44.624;20.378;2023-02-01T04:35:04;2.63;81.04
69393;SHT31;56582;44.624;20.378;2023-02-01T04:37:30;2.54;81.58
69393;SHT31;56582;44.624;20.378;2023-02-01T04:39:56;2.52;81.28
69393;SHT31;56582;44.624;20.378;2023-02-01T04:42:21;2.57;81.06
69393;SHT31;56582;44.624;20.378;2023-02-01T04:44:47;2.83;80.85
69393;SHT31;56582;44.624;20.378;2023-02-01T04:47:13;2.91;80.28
69393;SHT31;56582;44.624;20.378;2023-02-01T04:49:39;2.88;79.39
69393;SHT31;56582;44.624;20.378;2023-02-01T04:52:05;2.93;79.08
69393;SHT31;56582;44.624;20.378;2023-02-01T04:54:30;3.01;81.83
69393;SHT31;56582;44.624;20.378;2023-02-01T04:56:55;3.26;87.39
69393;SHT31;56582;44.624;20.378;2023-02-01T04:59:21;3.38;89.85
69393;SHT31;56582;44.624;20.378;2023-02-01T05:01:46;3.69;93.90
69393;SHT31;56582;44.624;20.378;2023-02-01T05:04:12;3.69;94.15
69393;SHT31;56582;44.624;20.378;2023-02-01T05:06:37;3.43;86.75
69393;SHT31;56582;44.624;20.378;2023-02-01T05:09:03;3.26;83.51
69393;SHT31;56582;44.624;20.378;2023-02-01T05:11:28;3.12;81.40
69393;SHT31;56582;44.624;20.378;2023-02-01T05:14:12;3.11;80.61
69393;SHT31;56582;44.624;20.378;2023-02-01T05:16:37;3.26;79.70
69393;SHT31;56582;44.624;20.378;2023-02-01T05:19:03;3.33;78.83
69393;SHT31;56582;44.624;20.378;2023-02-01T05:21:28;3.23;78.46
69393;SHT31;56582;44.624;20.378;2023-02-01T05:23:54;3.28;79.05
69393;SHT31;56582;44.624;20.378;2023-02-01T05:26:34;3.26;79.41
69393;SHT31;56582;44.624;20.378;2023-02-01T05:29:00;3.19;79.33
69393;SHT31;56582;44.624;20.378;2023-02-01T05:31:25;3.21;78.89
69393;SHT31;56582;44.624;20.378;2023-02-01T05:33:51;3.35;77.62
69393;SHT31;56582;44.624;20.378;2023-02-01T05:36:17;3.19;78.36
69393;SHT31;56582;44.624;20.378;2023-02-01T05:38:43;3.01;78.78
69393;SHT31;56582;44.624;20.378;2023-02-01T05:41:09;3.02;78.72
69393;SHT31;56582;44.624;20.378;2023-02-01T05:43:34;2.98;79.16
69393;SHT31;56582;44.624;20.378;2023-02-01T05:46:00;2.94;78.99
69393;SHT31;56582;44.624;20.378;2023-02-01T05:48:26;2.93;79.83
69393;SHT31;56582;44.624;20.378;2023-02-01T05:50:51;2.97;79.82
69393;SHT31;56582;44.624;20.378;2023-02-01T05:53:17;3.04;79.83
69393;SHT31;56582;44.624;20.378;2023-02-01T05:55:42;3.05;79.53
69393;SHT31;56582;44.624;20.378;2023-02-01T05:58:08;3.07;79.50
69393;SHT31;56582;44.624;20.378;2023-02-01T06:00:33;3.05;79.77
69393;SHT31;56582;44.624;20.378;2023-02-01T06:02:59;3.14;82.75
69393;SHT31;56582;44.624;20.378;2023-02-01T06:05:24;3.12;79.71
69393;SHT31;56582;44.624;20.378;2023-02-01T06:07:50;3.11;79.87
69393;SHT31;56582;44.624;20.378;2023-02-01T06:10:17;3.02;79.16
69393;SHT31;56582;44.624;20.378;2023-02-01T06:12:43;3.11;78.46
69393;SHT31;56582;44.624;20.378;2023-02-01T06:15:11;3.07;77.72
69393;SHT31;56582;44.624;20.378;2023-02-01T06:17:36;3.08;78.55
69393;SHT31;56582;44.624;20.378;2023-02-01T06:20:03;3.05;79.17
69393;SHT31;56582;44.624;20.378;2023-02-01T06:22:28;3.02;79.44
69393;SHT31;56582;44.624;20.378;2023-02-01T06:24:54;3.00;79.33
69393;SHT31;56582;44.624;20.378;2023-02-01T06:27:19;3.02;78.08
69393;SHT31;56582;44.624;20.378;2023-02-01T06:29:45;3.00;78.42
69393;SHT31;56582;44.624;20.378;2023-02-01T06:32:10;3.04;77.68
69393;SHT31;56582;44.624;20.378;2023-02-01T06:34:36;2.97;77.20
69393;SHT31;56582;44.624;20.378;2023-02-01T06:37:02;2.98;77.63
69393;SHT31;56582;44.624;20.378;2023-02-01T06:39:27;3.14;78.17
69393;SHT31;56582;44.624;20.378;2023-02-01T06:41:53;3.25;78.51
69393;SHT31;56582;44.624;20.378;2023-02-01T06:44:19;3.26;78.83
69393;SHT31;56582;44.624;20.378;2023-02-01T06:46:44;3.42;78.59
69393;SHT31;56582;44.624;20.378;2023-02-01T06:49:10;3.35;78.65
69393;SHT31;56582;44.624;20.378;2023-02-01T06:51:35;3.43;77.88
69393;SHT31;56582;44.624;20.378;2023-02-01T06:54:01;3.14;77.19
69393;SHT31;56582;44.624;20.378;2023-02-01T06:56:27;3.14;77.30
69393;SHT31;56582;44.624;20.378;2023-02-01T06:58:52;3.04;77.76
69393;SHT31;56582;44.624;20.378;2023-02-01T07:01:19;3.09;78.44
69393;SHT31;56582;44.624;20.378;2023-02-01T07:03:49;3.05;77.82
69393;SHT31;56582;44.624;20.378;2023-02-01T07:06:15;3.01;78.59
69393;SHT31;56582;44.624;20.378;2023-02-01T07:08:40;3.08;79.21
69393;SHT31;56582;44.624;20.378;2023-02-01T07:11:08;3.29;77.90
69393;SHT31;56582;44.624;20.378;2023-02-01T07:13:34;3.28;79.05
69393;SHT31;56582;44.624;20.378;2023-02-01T07:16:01;3.35;78.40
69393;SHT31;56582;44.624;20.378;2023-02-01T07:18:28;3.09;79.29
69393;SHT31;56582;44.624;20.378;2023-02-01T07:20:54;3.19;79.09
69393;SHT31;56582;44.624;20.378;2023-02-01T07:23:19;3.08;79.16
69393;SHT31;56582;44.624;20.378;2023-02-01T07:25:45;3.29;76.49
69393;SHT31;56582;44.624;20.378;2023-02-01T07:28:10;3.26;78.39
69393;SHT31;56582;44.624;20.378;2023-02-01T07:30:36;3.33;77.29
69393;SHT31;56582;44.624;20.378;2023-02-01T07:33:01;3.36;78.35
69393;SHT31;56582;44.624;20.378;2023-02-01T07:35:28;3.42;79.88
69393;SHT31;56582;44.624;20.378;2023-02-01T07:37:53;3.38;77.89
69393;SHT31;56582;44.624;20.378;2023-02-01T07:40:18;3.40;79.38
69393;SHT31;56582;44.624;20.378;2023-02-01T07:42:48;3.35;79.76
69393;SHT31;56582;44.624;20.378;2023-02-01T07:45:13;3.40;80.00
69393;SHT31;56582;44.624;20.378;2023-02-01T07:47:40;3.43;78.76
69393;SHT31;56582;44.624;20.378;2023-02-01T07:50:06;3.36;79.28
69393;SHT31;56582;44.624;20.378;2023-02-01T07:52:31;3.55;79.11
69393;SHT31;56582;44.624;20.378;2023-02-01T07:54:57;3.69;78.99
69393;SHT31;56582;44.624;20.378;2023-02-01T07:57:22;3.89;79.52
69393;SHT31;56582;44.624;20.378;2023-02-01T07:59:48;3.83;78.68
69393;SHT31;56582;44.624;20.378;2023-02-01T08:02:32;3.81;78.99
69393;SHT31;56582;44.624;20.378;2023-02-01T08:04:57;3.89;79.05
69393;SHT31;56582;44.624;20.378;2023-02-01T08:07:22;4.00;78.62
69393;SHT31;56582;44.624;20.378;2023-02-01T08:09:48;3.94;79.13
69393;SHT31;56582;44.624;20.378;2023-02-01T08:12:13;4.11;78.34
69393;SHT31;56582;44.624;20.378;2023-02-01T08:14:39;4.18;77.16
69393;SHT31;56582;44.624;20.378;2023-02-01T08:17:06;4.20;77.59
69393;SHT31;56582;44.624;20.378;2023-02-01T08:19:31;4.39;77.31
69393;SHT31;56582;44.624;20.378;2023-02-01T08:21:57;4.41;77.91
69393;SHT31;56582;44.624;20.378;2023-02-01T08:24:24;4.52;78.48
69393;SHT31;56582;44.624;20.378;2023-02-01T08:26:50;4.76;77.62
69393;SHT31;56582;44.624;20.378;2023-02-01T08:29:16;4.97;77.21
69393;SHT31;56582;44.624;20.378;2023-02-01T08:31:42;5.06;76.56
69393;SHT31;56582;44.624;20.378;2023-02-01T08:34:08;5.23;76.19
69393;SHT31;56582;44.624;20.378;2023-02-01T08:36:34;5.45;76.16
69393;SHT31;56582;44.624;20.378;2023-02-01T08:39:00;5.54;76.02
69393;SHT31;56582;44.624;20.378;2023-02-01T08:41:27;5.65;74.49
69393;SHT31;56582;44.624;20.378;2023-02-01T08:43:54;5.63;74.33
69393;SHT31;56582;44.624;20.378;2023-02-01T08:46:20;5.93;72.32
69393;SHT31;56582;44.624;20.378;2023-02-01T08:48:46;5.97;71.64
69393;SHT31;56582;44.624;20.378;2023-02-01T08:51:13;5.93;69.96
69393;SHT31;56582;44.624;20.378;2023-02-01T08:53:40;5.99;72.08
69393;SHT31;56582;44.624;20.378;2023-02-01T08:56:07;6.07;71.79
69393;SHT31;56582;44.624;20.378;2023-02-01T08:58:33;6.11;73.13
69393;SHT31;56582;44.624;20.378;2023-02-01T09:01:05;6.11;72.72
69393;SHT31;56582;44.624;20.378;2023-02-01T09:03:30;6.28;73.31
69393;SHT31;56582;44.624;20.378;2023-02-01T09:06:00;6.40;72.66
69393;SHT31;56582;44.624;20.378;2023-02-01T09:08:26;6.36;73.27
69393;SHT31;56582;44.624;20.378;2023-02-01T09:10:51;6.57;73.39
69393;SHT31;56582;44.624;20.378;2023-02-01T09:13:17;6.74;72.40
69393;SHT31;56582;44.624;20.378;2023-02-01T09:15:42;6.76;72.27
69393;SHT31;56582;44.624;20.378;2023-02-01T09:18:08;6.86;72.18
69393;SHT31;56582;44.624;20.378;2023-02-01T09:20:33;6.85;70.42
69393;SHT31;56582;44.624;20.378;2023-02-01T09:22:58;7.00;71.98
69393;SHT31;56582;44.624;20.378;2023-02-01T09:25:25;7.09;71.92
69393;SHT31;56582;44.624;20.378;2023-02-01T09:27:50;7.20;71.59
69393;SHT31;56582;44.624;20.378;2023-02-01T09:30:16;7.23;72.47
69393;SHT31;56582;44.624;20.378;2023-02-01T09:32:41;7.20;71.40
69393;SHT31;56582;44.624;20.378;2023-02-01T09:35:07;7.40;72.82
69393;SHT31;56582;44.624;20.378;2023-02-01T09:37:33;7.48;70.35
69393;SHT31;56582;44.624;20.378;2023-02-01T09:39:58;7.65;69.69
69393;SHT31;56582;44.624;20.378;2023-02-01T09:45:24;7.51;72.97
69393;SHT31;56582;44.624;20.378;2023-02-01T09:47:58;7.48;72.26
69393;SHT31;56582;44.624;20.378;2023-02-01T09:50:37;7.77;71.24
69393;SHT31;56582;44.624;20.378;2023-02-01T09:53:10;7.73;72.12
69393;SHT31;56582;44.624;20.378;2023-02-01T09:55:47;7.70;72.23
69393;SHT31;56582;44.624;20.378;2023-02-01T09:58:17;8.09;70.91
69393;SHT31;56582;44.624;20.378;2023-02-01T10:00:52;8.26;70.22
69393;SHT31;56582;44.624;20.378;2023-02-01T10:03:18;8.34;70.52
69393;SHT31;56582;44.624;20.378;2023-02-01T10:06:06;8.36;69.27
69393;SHT31;56582;44.624;20.378;2023-02-01T10:19:44;8.81;69.26
69393;SHT31;56582;44.624;20.378;2023-02-01T10:25:18;9.00;67.02
69393;SHT31;56582;44.624;20.378;2023-02-01T10:27:45;9.22;66.01
69393;SHT31;56582;44.624;20.378;2023-02-01T10:30:23;9.16;67.54
69393;SHT31;56582;44.624;20.378;2023-02-01T10:32:55;9.44;65.70
69393;SHT31;56582;44.624;20.378;2023-02-01T10:35:28;9.29;60.78
69393;SHT31;56582;44.624;20.378;2023-02-01T10:38:00;8.98;58.83
69393;SHT31;56582;44.624;20.378;2023-02-01T10:40:27;8.98;59.24
69393;SHT31;56582;44.624;20.378;2023-02-01T10:43:02;8.78;60.68
69393;SHT31;56582;44.624;20.378;2023-02-01T10:45:30;8.87;60.21
69393;SHT31;56582;44.624;20.378;2023-02-01T10:47:57;8.61;59.37
69393;SHT31;56582;44.624;20.378;2023-02-01T10:50:39;8.92;59.62
69393;SHT31;56582;44.624;20.378;2023-02-01T10:53:28;9.22;57.14
69393;SHT31;56582;44.624;20.378;2023-02-01T10:55:56;8.91;58.36
69393;SHT31;56582;44.624;20.378;2023-02-01T10:58:30;8.68;59.62
69393;SHT31;56582;44.624;20.378;2023-02-01T11:01:06;8.56;61.68
69393;SHT31;56582;44.624;20.378;2023-02-01T11:03:53;8.25;60.45
69393;SHT31;56582;44.624;20.378;2023-02-01T11:06:24;8.36;59.24
69393;SHT31;56582;44.624;20.378;2023-02-01T11:08:53;8.15;61.11
69393;SHT31;56582;44.624;20.378;2023-02-01T11:11:20;8.29;62.34
69393;SHT31;56582;44.624;20.378;2023-02-01T11:13:52;8.25;60.30
69393;SHT31;56582;44.624;20.378;2023-02-01T11:16:18;8.07;61.26
69393;SHT31;56582;44.624;20.378;2023-02-01T11:18:44;8.12;61.80
69393;SHT31;56582;44.624;20.378;2023-02-01T11:21:10;8.22;61.06
69393;SHT31;56582;44.624;20.378;2023-02-01T11:23:41;8.15;61.59
69393;SHT31;56582;44.624;20.378;2023-02-01T11:26:12;8.19;63.21
69393;SHT31;56582;44.624;20.378;2023-02-01T11:28:40;8.29;61.80
69393;SHT31;56582;44.624;20.378;2023-02-01T11:31:11;8.34;62.42
69393;SHT31;56582;44.624;20.378;2023-02-01T11:33:39;8.61;61.28
69393;SHT31;56582;44.624;20.378;2023-02-01T11:36:16;8.81;61.26
69393;SHT31;56582;44.624;20.378;2023-02-01T11:38:50;8.81;60.81
69393;SHT31;56582;44.624;20.378;2023-02-01T11:41:27;8.77;59.64
69393;SHT31;56582;44.624;20.378;2023-02-01T11:43:56;8.70;57.51
69393;SHT31;56582;44.624;20.378;2023-02-01T11:46:28;8.52;60.06
69393;SHT31;56582;44.624;20.378;2023-02-01T11:48:55;8.77;57.92
69393;SHT31;56582;44.624;20.378;2023-02-01T11:51:30;8.95;57.09
69393;SHT31;56582;44.624;20.378;2023-02-01T11:54:10;8.78;58.58
69393;SHT31;56582;44.624;20.378;2023-02-01T12:13:55;8.52;60.01
69393;SHT31;56582;44.624;20.378;2023-02-01T12:19:11;8.44;58.05
69393;SHT31;56582;44.624;20.378;2023-02-01T12:24:49;8.25;57.25
69393;SHT31;56582;44.624;20.378;2023-02-01T12:33:36;8.57;56.05
69393;SHT31;56582;44.624;20.378;2023-02-01T12:36:26;8.61;55.65
69393;SHT31;56582;44.624;20.378;2023-02-01T12:39:08;8.60;57.90
69393;SHT31;56582;44.624;20.378;2023-02-01T12:44:31;8.78;58.90
69393;SHT31;56582;44.624;20.378;2023-02-01T12:47:03;8.89;57.64
69393;SHT31;56582;44.624;20.378;2023-02-01T12:49:46;9.00;57.74
69393;SHT31;56582;44.624;20.378;2023-02-01T12:52:21;9.23;58.39
69393;SHT31;56582;44.624;20.378;2023-02-01T12:57:30;9.04;57.28
69393;SHT31;56582;44.624;20.378;2023-02-01T13:05:20;8.80;55.63
69393;SHT31;56582;44.624;20.378;2023-02-01T13:07:56;8.92;56.33
69393;SHT31;56582;44.624;20.378;2023-02-01T13:10:48;9.01;55.03
69393;SHT31;56582;44.624;20.378;2023-02-01T13:13:22;8.82;55.62
69393;SHT31;56582;44.624;20.378;2023-02-01T13:16:38;8.81;55.86
69393;SHT31;56582;44.624;20.378;2023-02-01T13:19:05;8.80;55.25
69393;SHT31;56582;44.624;20.378;2023-02-01T13:21:35;8.84;55.27
69393;SHT31;56582;44.624;20.378;2023-02-01T13:24:03;8.98;56.97
69393;SHT31;56582;44.624;20.378;2023-02-01T13:26:28;8.81;54.93
69393;SHT31;56582;44.624;20.378;2023-02-01T13:29:04;8.73;55.52
69393;SHT31;56582;44.624;20.378;2023-02-01T13:44:42;8.68;56.83
69393;SHT31;56582;44.624;20.378;2023-02-01T13:49:42;9.02;56.59
69393;SHT31;56582;44.624;20.378;2023-02-01T13:52:27;8.94;56.35
69393;SHT31;56582;44.624;20.378;2023-02-01T13:55:23;8.77;55.14
69393;SHT31;56582;44.624;20.378;2023-02-01T13:57:51;8.85;56.21
69393;SHT31;56582;44.624;20.378;2023-02-01T14:00:27;8.92;55.78
69393;SHT31;56582;44.624;20.378;2023-02-01T14:11:02;8.98;58.43
69393;SHT31;56582;44.624;20.378;2023-02-01T14:13:38;8.97;58.40
69393;SHT31;56582;44.624;20.378;2023-02-01T14:34:20;7.95;61.24
69393;SHT31;56582;44.624;20.378;2023-02-01T14:37:10;8.17;60.62
69393;SHT31;56582;44.624;20.378;2023-02-01T14:42:33;8.17;60.41
69393;SHT31;56582;44.624;20.378;2023-02-01T14:50:46;7.92;60.95
69393;SHT31;56582;44.624;20.378;2023-02-01T14:56:07;7.73;61.45
69393;SHT31;56582;44.624;20.378;2023-02-01T14:58:40;7.77;60.64
69393;SHT31;56582;44.624;20.378;2023-02-01T15:01:33;7.53;62.33
69393;SHT31;56582;44.624;20.378;2023-02-01T15:04:13;7.53;62.63
69393;SHT31;56582;44.624;20.378;2023-02-01T15:15:13;7.75;61.82
69393;SHT31;56582;44.624;20.378;2023-02-01T15:17:40;7.43;61.65
69393;SHT31;56582;44.624;20.378;2023-02-01T15:20:21;7.46;61.44
69393;SHT31;56582;44.624;20.378;2023-02-01T15:23:14;7.26;62.04
69393;SHT31;56582;44.624;20.378;2023-02-01T15:25:45;7.15;63.13
69393;SHT31;56582;44.624;20.378;2023-02-01T15:28:15;7.06;62.63
69393;SHT31;56582;44.624;20.378;2023-02-01T15:30:59;7.19;62.62
69393;SHT31;56582;44.624;20.378;2023-02-01T15:33:26;7.34;61.84
69393;SHT31;56582;44.624;20.378;2023-02-01T15:36:16;7.19;62.41
69393;SHT31;56582;44.624;20.378;2023-02-01T15:38:43;7.30;62.00
69393;SHT31;56582;44.624;20.378;2023-02-01T15:41:18;7.37;62.34
69393;SHT31;56582;44.624;20.378;2023-02-01T15:46:21;7.20;62.62
69393;SHT31;56582;44.624;20.378;2023-02-01T15:48:52;7.22;62.97
69393;SHT31;56582;44.624;20.378;2023-02-01T15:51:21;7.19;62.62
69393;SHT31;56582;44.624;20.378;2023-02-01T15:53:55;7.13;62.71
69393;SHT31;56582;44.624;20.378;2023-02-01T15:56:35;7.00;62.76
69393;SHT31;56582;44.624;20.378;2023-02-01T15:59:05;6.97;63.13
69393;SHT31;56582;44.624;20.378;2023-02-01T16:01:36;6.71;64.00
69393;SHT31;56582;44.624;20.378;2023-02-01T16:06:36;6.24;65.70
69393;SHT31;56582;44.624;20.378;2023-02-01T16:09:12;6.17;66.02
69393;SHT31;56582;44.624;20.378;2023-02-01T16:11:57;6.11;65.73
69393;SHT31;56582;44.624;20.378;2023-02-01T16:14:23;6.26;65.62
69393;SHT31;56582;44.624;20.378;2023-02-01T16:16:50;6.33;65.40
69393;SHT31;56582;44.624;20.378;2023-02-01T16:19:15;6.58;65.05
69393;SHT31;56582;44.624;20.378;2023-02-01T16:21:41;6.42;65.37
69393;SHT31;56582;44.624;20.378;2023-02-01T16:24:06;6.18;65.97
69393;SHT31;56582;44.624;20.378;2023-02-01T16:26:33;6.23;65.96
69393;SHT31;56582;44.624;20.378;2023-02-01T16:28:59;6.28;65.37
69393;SHT31;56582;44.624;20.378;2023-02-01T16:31:30;6.37;65.59
69393;SHT31;56582;44.624;20.378;2023-02-01T16:33:56;6.33;66.16
69393;SHT31;56582;44.624;20.378;2023-02-01T16:36:22;6.38;65.06
69393;SHT31;56582;44.624;20.378;2023-02-01T16:38:48;6.24;66.09
69393;SHT31;56582;44.624;20.378;2023-02-01T16:41:16;6.10;66.52
69393;SHT31;56582;44.624;20.378;2023-02-01T16:43:42;6.23;66.74
69393;SHT31;56582;44.624;20.378;2023-02-01T16:46:13;6.06;66.96
69393;SHT31;56582;44.624;20.378;2023-02-01T16:48:41;5.89;67.55
69393;SHT31;56582;44.624;20.378;2023-02-01T16:51:13;5.72;68.02
69393;SHT31;56582;44.624;20.378;2023-02-01T16:53:40;5.72;68.37
69393;SHT31;56582;44.624;20.378;2023-02-01T16:56:20;5.82;67.88
69393;SHT31;56582;44.624;20.378;2023-02-01T16:58:46;5.92;67.85
69393;SHT31;56582;44.624;20.378;2023-02-01T17:01:13;5.80;68.38
69393;SHT31;56582;44.624;20.378;2023-02-01T17:03:39;5.83;67.01
69393;SHT31;56582;44.624;20.378;2023-02-01T17:06:07;5.85;67.16
69393;SHT31;56582;44.624;20.378;2023-02-01T17:08:40;5.95;67.22
69393;SHT31;56582;44.624;20.378;2023-02-01T17:11:06;6.07;67.59
69393;SHT31;56582;44.624;20.378;2023-02-01T17:13:33;6.24;67.29
69393;SHT31;56582;44.624;20.378;2023-02-01T17:16:06;6.00;68.05
69393;SHT31;56582;44.624;20.378;2023-02-01T17:18:34;6.05;66.93
69393;SHT31;56582;44.624;20.378;2023-02-01T17:21:02;6.03;66.40
69393;SHT31;56582;44.624;20.378;2023-02-01T17:23:29;6.07;66.63
69393;SHT31;56582;44.624;20.378;2023-02-01T17:25:55;6.27;66.76
69393;SHT31;56582;44.624;20.378;2023-02-01T17:28:21;6.03;67.23
69393;SHT31;56582;44.624;20.378;2023-02-01T17:30:47;6.03;67.09
69393;SHT31;56582;44.624;20.378;2023-02-01T17:33:35;6.17;67.08
69393;SHT31;56582;44.624;20.378;2023-02-01T17:36:01;6.14;66.59
69393;SHT31;56582;44.624;20.378;2023-02-01T17:38:27;6.28;65.99
69393;SHT31;56582;44.624;20.378;2023-02-01T17:40:52;6.23;65.52
69393;SHT31;56582;44.624;20.378;2023-02-01T17:43:23;6.21;66.23
69393;SHT31;56582;44.624;20.378;2023-02-01T17:45:54;6.24;66.68
69393;SHT31;56582;44.624;20.378;2023-02-01T17:48:21;6.24;67.08
69393;SHT31;56582;44.624;20.378;2023-02-01T17:50:48;6.37;66.16
69393;SHT31;56582;44.624;20.378;2023-02-01T17:53:17;6.55;65.54
69393;SHT31;56582;44.624;20.378;2023-02-01T17:55:45;6.57;65.74
69393;SHT31;56582;44.624;20.378;2023-02-01T17:58:12;6.52;65.28
69393;SHT31;56582;44.624;20.378;2023-02-01T18:00:41;6.58;64.98
69393;SHT31;56582;44.624;20.378;2023-02-01T18:03:26;6.51;64.84
69393;SHT31;56582;44.624;20.378;2023-02-01T18:05:54;6.52;64.83
69393;SHT31;56582;44.624;20.378;2023-02-01T18:08:27;6.52;64.23
69393;SHT31;56582;44.624;20.378;2023-02-01T18:10:55;6.44;64.39
69393;SHT31;56582;44.624;20.378;2023-02-01T18:13:24;6.21;65.80
69393;SHT31;56582;44.624;20.378;2023-02-01T18:15:50;6.26;65.49
69393;SHT31;56582;44.624;20.378;2023-02-01T18:18:16;6.36;65.54
69393;SHT31;56582;44.624;20.378;2023-02-01T18:20:43;6.23;66.51
69393;SHT31;56582;44.624;20.378;2023-02-01T18:23:22;6.03;66.73